sensor_id;sensor_type;location;lat;lon;timestamp;P1;durP1;ratioP1;P2;durP2;ratioP2
72517;SDS011;60540;51.178;6.738;2024-01-10T00:00:36;5.45;;;3.05;;
72517;SDS011;60540;51.178;6.738;2024-01-10T00:03:41;8.20;;;4.05;;
72517;SDS011;60540;51.178;6.738;2024-01-10T00:06:25;6.88;;;3.47;;
72517;SDS011;60540;51.178;6.738;2024-01-10T00:09:09;5.65;;;2.50;;
72517;SDS011;60540;51.178;6.738;2024-01-10T00:11:54;6.65;;;2.88;;
72517;SDS011;60540;51.178;6.738;2024-01-10T00:14:38;7.25;;;3.50;;
72517;SDS011;60540;51.178;6.738;2024-01-10T00:17:22;7.13;;;3.08;;
72517;SDS011;60540;51.178;6.738;2024-01-10T00:20:07;7.35;;;3.10;;
72517;SDS011;60540;51.178;6.738;2024-01-10T00:22:52;9.23;;;3.85;;
72517;SDS011;60540;51.178;6.738;2024-01-10T00:25:36;7.45;;;3.92;;
72517;SDS011;60540;51.178;6.738;2024-01-10T00:28:20;6.82;;;3.35;;
72517;SDS011;60540;51.178;6.738;2024-01-10T00:31:04;8.15;;;3.92;;
72517;SDS011;60540;51.178;6.738;2024-01-10T00:33:48;7.22;;;3.58;;
72517;SDS011;60540;51.178;6.738;2024-01-10T00:36:32;6.93;;;3.20;;
72517;SDS011;60540;51.178;6.738;2024-01-10T00:39:17;7.50;;;3.35;;
72517;SDS011;60540;51.178;6.738;2024-01-10T00:42:01;7.03;;;4.05;;
72517;SDS011;60540;51.178;6.738;2024-01-10T00:44:45;7.20;;;3.67;;
72517;SDS011;60540;51.178;6.738;2024-01-10T00:47:29;7.07;;;2.92;;
72517;SDS011;60540;51.178;6.738;2024-01-10T00:50:14;8.00;;;3.40;;
72517;SDS011;60540;51.178;6.738;2024-01-10T00:52:58;8.80;;;3.80;;
72517;SDS011;60540;51.178;6.738;2024-01-10T00:55:42;8.15;;;3.25;;
72517;SDS011;60540;51.178;6.738;2024-01-10T00:58:26;8.52;;;3.45;;
72517;SDS011;60540;51.178;6.738;2024-01-10T01:01:11;5.53;;;3.35;;
72517;SDS011;60540;51.178;6.738;2024-01-10T01:03:55;5.05;;;3.00;;
72517;SDS011;60540;51.178;6.738;2024-01-10T01:06:39;8.90;;;3.22;;
72517;SDS011;60540;51.178;6.738;2024-01-10T01:09:23;7.15;;;3.08;;
72517;SDS011;60540;51.178;6.738;2024-01-10T01:12:08;6.90;;;3.75;;
72517;SDS011;60540;51.178;6.738;2024-01-10T01:14:53;7.55;;;3.67;;
72517;SDS011;60540;51.178;6.738;2024-01-10T01:17:37;7.32;;;3.63;;
72517;SDS011;60540;51.178;6.738;2024-01-10T01:20:21;6.55;;;3.30;;
72517;SDS011;60540;51.178;6.738;2024-01-10T01:23:06;10.98;;;3.50;;
72517;SDS011;60540;51.178;6.738;2024-01-10T01:25:50;6.28;;;3.47;;
72517;SDS011;60540;51.178;6.738;2024-01-10T01:28:35;6.45;;;2.95;;
72517;SDS011;60540;51.178;6.738;2024-01-10T01:31:19;7.13;;;3.65;;
72517;SDS011;60540;51.178;6.738;2024-01-10T01:34:04;5.72;;;3.33;;
72517;SDS011;60540;51.178;6.738;2024-01-10T01:36:48;5.72;;;3.40;;
72517;SDS011;60540;51.178;6.738;2024-01-10T01:39:35;7.70;;;3.63;;
72517;SDS011;60540;51.178;6.738;2024-01-10T01:42:19;9.35;;;3.25;;
72517;SDS011;60540;51.178;6.738;2024-01-10T01:45:04;5.65;;;3.10;;
72517;SDS011;60540;51.178;6.738;2024-01-10T01:47:48;8.02;;;3.13;;
72517;SDS011;60540;51.178;6.738;2024-01-10T01:50:33;5.38;;;3.25;;
72517;SDS011;60540;51.178;6.738;2024-01-10T01:53:18;8.15;;;4.00;;
72517;SDS011;60540;51.178;6.738;2024-01-10T01:56:06;7.47;;;3.28;;
72517;SDS011;60540;51.178;6.738;2024-01-10T01:58:51;6.03;;;2.55;;
72517;SDS011;60540;51.178;6.738;2024-01-10T02:01:36;6.80;;;2.97;;
72517;SDS011;60540;51.178;6.738;2024-01-10T02:04:20;9.63;;;3.53;;
72517;SDS011;60540;51.178;6.738;2024-01-10T02:07:05;6.60;;;3.10;;
72517;SDS011;60540;51.178;6.738;2024-01-10T02:09:49;5.72;;;3.35;;
72517;SDS011;60540;51.178;6.738;2024-01-10T02:12:33;7.30;;;3.75;;
72517;SDS011;60540;51.178;6.738;2024-01-10T02:15:18;6.95;;;2.92;;
72517;SDS011;60540;51.178;6.738;2024-01-10T02:18:03;5.50;;;2.85;;
72517;SDS011;60540;51.178;6.738;2024-01-10T02:23:33;7.60;;;3.40;;
72517;SDS011;60540;51.178;6.738;2024-01-10T02:26:18;6.35;;;3.30;;
72517;SDS011;60540;51.178;6.738;2024-01-10T02:29:02;6.63;;;2.88;;
72517;SDS011;60540;51.178;6.738;2024-01-10T02:31:47;6.95;;;2.75;;
72517;SDS011;60540;51.178;6.738;2024-01-10T02:34:32;6.10;;;3.35;;
72517;SDS011;60540;51.178;6.738;2024-01-10T02:37:17;5.53;;;2.78;;
72517;SDS011;60540;51.178;6.738;2024-01-10T02:40:01;9.02;;;3.13;;
72517;SDS011;60540;51.178;6.738;2024-01-10T02:42:45;6.95;;;3.67;;
72517;SDS011;60540;51.178;6.738;2024-01-10T02:45:29;9.18;;;3.97;;
72517;SDS011;60540;51.178;6.738;2024-01-10T02:48:13;9.65;;;3.65;;
72517;SDS011;60540;51.178;6.738;2024-01-10T02:50:57;7.40;;;3.33;;
72517;SDS011;60540;51.178;6.738;2024-01-10T02:53:42;8.25;;;3.53;;
72517;SDS011;60540;51.178;6.738;2024-01-10T02:56:26;7.20;;;3.72;;
72517;SDS011;60540;51.178;6.738;2024-01-10T02:59:10;8.65;;;3.10;;
72517;SDS011;60540;51.178;6.738;2024-01-10T03:01:55;8.55;;;3.22;;
72517;SDS011;60540;51.178;6.738;2024-01-10T03:04:40;6.60;;;3.17;;
72517;SDS011;60540;51.178;6.738;2024-01-10T03:07:24;6.63;;;3.30;;
72517;SDS011;60540;51.178;6.738;2024-01-10T03:10:09;6.18;;;2.90;;
72517;SDS011;60540;51.178;6.738;2024-01-10T03:12:53;6.75;;;4.18;;
72517;SDS011;60540;51.178;6.738;2024-01-10T03:15:37;6.78;;;2.80;;
72517;SDS011;60540;51.178;6.738;2024-01-10T03:18:23;6.50;;;3.63;;
72517;SDS011;60540;51.178;6.738;2024-01-10T03:21:07;7.05;;;3.17;;
72517;SDS011;60540;51.178;6.738;2024-01-10T03:23:51;6.25;;;3.47;;
72517;SDS011;60540;51.178;6.738;2024-01-10T03:26:44;5.75;;;3.08;;
72517;SDS011;60540;51.178;6.738;2024-01-10T03:29:29;6.07;;;3.28;;
72517;SDS011;60540;51.178;6.738;2024-01-10T03:32:13;5.85;;;3.17;;
72517;SDS011;60540;51.178;6.738;2024-01-10T03:34:58;7.75;;;3.40;;
72517;SDS011;60540;51.178;6.738;2024-01-10T03:37:42;6.28;;;3.35;;
72517;SDS011;60540;51.178;6.738;2024-01-10T03:40:27;6.78;;;3.60;;
72517;SDS011;60540;51.178;6.738;2024-01-10T03:43:11;8.43;;;3.53;;
72517;SDS011;60540;51.178;6.738;2024-01-10T03:45:56;6.90;;;3.30;;
72517;SDS011;60540;51.178;6.738;2024-01-10T03:48:41;7.28;;;3.45;;
72517;SDS011;60540;51.178;6.738;2024-01-10T03:51:31;6.82;;;3.83;;
72517;SDS011;60540;51.178;6.738;2024-01-10T03:54:15;7.13;;;3.85;;
72517;SDS011;60540;51.178;6.738;2024-01-10T03:57:00;5.82;;;2.78;;
72517;SDS011;60540;51.178;6.738;2024-01-10T03:59:44;5.90;;;2.90;;
72517;SDS011;60540;51.178;6.738;2024-01-10T04:02:29;9.35;;;4.03;;
72517;SDS011;60540;51.178;6.738;2024-01-10T04:05:13;7.20;;;3.45;;
72517;SDS011;60540;51.178;6.738;2024-01-10T04:07:57;5.35;;;2.97;;
72517;SDS011;60540;51.178;6.738;2024-01-10T04:10:41;9.38;;;4.40;;
72517;SDS011;60540;51.178;6.738;2024-01-10T04:13:26;6.78;;;3.35;;
72517;SDS011;60540;51.178;6.738;2024-01-10T04:16:10;9.32;;;3.28;;
72517;SDS011;60540;51.178;6.738;2024-01-10T04:18:54;8.25;;;3.78;;
72517;SDS011;60540;51.178;6.738;2024-01-10T04:21:38;8.10;;;3.13;;
72517;SDS011;60540;51.178;6.738;2024-01-10T04:24:23;6.40;;;3.08;;
72517;SDS011;60540;51.178;6.738;2024-01-10T04:27:07;8.18;;;3.88;;
72517;SDS011;60540;51.178;6.738;2024-01-10T04:29:52;7.95;;;4.03;;
72517;SDS011;60540;51.178;6.738;2024-01-10T04:32:36;6.97;;;3.92;;
72517;SDS011;60540;51.178;6.738;2024-01-10T04:35:21;7.38;;;4.18;;
72517;SDS011;60540;51.178;6.738;2024-01-10T04:38:05;6.82;;;3.47;;
72517;SDS011;60540;51.178;6.738;2024-01-10T04:40:49;7.05;;;3.08;;
72517;SDS011;60540;51.178;6.738;2024-01-10T04:43:33;9.25;;;4.20;;
72517;SDS011;60540;51.178;6.738;2024-01-10T04:46:18;8.95;;;3.95;;
72517;SDS011;60540;51.178;6.738;2024-01-10T04:49:02;7.90;;;3.30;;
72517;SDS011;60540;51.178;6.738;2024-01-10T04:51:46;6.82;;;3.15;;
72517;SDS011;60540;51.178;6.738;2024-01-10T04:54:31;8.50;;;3.35;;
72517;SDS011;60540;51.178;6.738;2024-01-10T04:57:16;9.25;;;3.67;;
72517;SDS011;60540;51.178;6.738;2024-01-10T05:00:01;8.00;;;3.92;;
72517;SDS011;60540;51.178;6.738;2024-01-10T05:02:46;9.77;;;5.30;;
72517;SDS011;60540;51.178;6.738;2024-01-10T05:05:30;10.45;;;4.20;;
72517;SDS011;60540;51.178;6.738;2024-01-10T05:08:14;10.07;;;5.18;;
72517;SDS011;60540;51.178;6.738;2024-01-10T05:10:59;8.43;;;3.45;;
72517;SDS011;60540;51.178;6.738;2024-01-10T05:13:43;10.55;;;4.60;;
72517;SDS011;60540;51.178;6.738;2024-01-10T05:16:27;9.95;;;3.55;;
72517;SDS011;60540;51.178;6.738;2024-01-10T05:19:11;8.45;;;3.83;;
72517;SDS011;60540;51.178;6.738;2024-01-10T05:21:55;5.72;;;3.83;;
72517;SDS011;60540;51.178;6.738;2024-01-10T05:24:40;6.00;;;3.40;;
72517;SDS011;60540;51.178;6.738;2024-01-10T05:27:24;7.18;;;3.83;;
72517;SDS011;60540;51.178;6.738;2024-01-10T05:30:08;6.18;;;3.47;;
72517;SDS011;60540;51.178;6.738;2024-01-10T05:32:53;6.93;;;3.95;;
72517;SDS011;60540;51.178;6.738;2024-01-10T05:35:38;12.05;;;4.70;;
72517;SDS011;60540;51.178;6.738;2024-01-10T05:38:22;7.45;;;3.03;;
72517;SDS011;60540;51.178;6.738;2024-01-10T05:41:07;7.63;;;3.42;;
72517;SDS011;60540;51.178;6.738;2024-01-10T05:43:51;8.98;;;4.22;;
72517;SDS011;60540;51.178;6.738;2024-01-10T05:46:35;8.13;;;2.88;;
72517;SDS011;60540;51.178;6.738;2024-01-10T05:49:19;8.23;;;3.53;;
72517;SDS011;60540;51.178;6.738;2024-01-10T05:52:04;9.32;;;3.92;;
72517;SDS011;60540;51.178;6.738;2024-01-10T05:54:48;14.13;;;4.32;;
72517;SDS011;60540;51.178;6.738;2024-01-10T05:57:32;8.48;;;3.03;;
72517;SDS011;60540;51.178;6.738;2024-01-10T06:00:17;5.53;;;3.60;;
72517;SDS011;60540;51.178;6.738;2024-01-10T06:03:02;4.47;;;2.83;;
72517;SDS011;60540;51.178;6.738;2024-01-10T06:05:46;7.18;;;3.60;;
72517;SDS011;60540;51.178;6.738;2024-01-10T06:08:30;9.38;;;3.95;;
72517;SDS011;60540;51.178;6.738;2024-01-10T06:11:14;8.38;;;4.35;;
72517;SDS011;60540;51.178;6.738;2024-01-10T06:13:58;7.75;;;3.25;;
72517;SDS011;60540;51.178;6.738;2024-01-10T06:16:43;10.05;;;3.60;;
72517;SDS011;60540;51.178;6.738;2024-01-10T06:19:29;7.95;;;3.80;;
72517;SDS011;60540;51.178;6.738;2024-01-10T06:22:14;8.88;;;3.78;;
72517;SDS011;60540;51.178;6.738;2024-01-10T06:25:00;7.47;;;3.95;;
72517;SDS011;60540;51.178;6.738;2024-01-10T06:27:44;10.43;;;3.75;;
72517;SDS011;60540;51.178;6.738;2024-01-10T06:30:29;5.55;;;2.85;;
72517;SDS011;60540;51.178;6.738;2024-01-10T06:33:13;10.65;;;4.70;;
72517;SDS011;60540;51.178;6.738;2024-01-10T06:35:57;7.65;;;4.20;;
72517;SDS011;60540;51.178;6.738;2024-01-10T06:38:42;5.88;;;3.40;;
72517;SDS011;60540;51.178;6.738;2024-01-10T06:41:27;4.55;;;2.90;;
72517;SDS011;60540;51.178;6.738;2024-01-10T06:44:11;7.00;;;3.63;;
72517;SDS011;60540;51.178;6.738;2024-01-10T06:46:56;5.65;;;3.53;;
72517;SDS011;60540;51.178;6.738;2024-01-10T06:49:40;9.25;;;3.50;;
72517;SDS011;60540;51.178;6.738;2024-01-10T06:52:24;8.13;;;4.10;;
72517;SDS011;60540;51.178;6.738;2024-01-10T06:55:09;8.00;;;3.92;;
72517;SDS011;60540;51.178;6.738;2024-01-10T06:57:53;9.45;;;3.83;;
72517;SDS011;60540;51.178;6.738;2024-01-10T07:00:38;6.25;;;3.50;;
72517;SDS011;60540;51.178;6.738;2024-01-10T07:03:22;8.57;;;3.88;;
72517;SDS011;60540;51.178;6.738;2024-01-10T07:06:06;9.15;;;3.75;;
72517;SDS011;60540;51.178;6.738;2024-01-10T07:08:50;9.70;;;5.40;;
72517;SDS011;60540;51.178;6.738;2024-01-10T07:11:34;6.07;;;3.47;;
72517;SDS011;60540;51.178;6.738;2024-01-10T07:14:19;7.32;;;5.03;;
72517;SDS011;60540;51.178;6.738;2024-01-10T07:17:03;11.02;;;3.78;;
72517;SDS011;60540;51.178;6.738;2024-01-10T07:19:48;9.35;;;4.45;;
72517;SDS011;60540;51.178;6.738;2024-01-10T07:22:32;7.05;;;4.00;;
72517;SDS011;60540;51.178;6.738;2024-01-10T07:25:17;7.85;;;4.35;;
72517;SDS011;60540;51.178;6.738;2024-01-10T07:28:01;8.27;;;4.15;;
72517;SDS011;60540;51.178;6.738;2024-01-10T07:30:46;9.00;;;4.18;;
72517;SDS011;60540;51.178;6.738;2024-01-10T07:33:30;12.07;;;4.82;;
72517;SDS011;60540;51.178;6.738;2024-01-10T07:36:14;7.25;;;3.58;;
72517;SDS011;60540;51.178;6.738;2024-01-10T07:38:58;9.48;;;3.97;;
72517;SDS011;60540;51.178;6.738;2024-01-10T07:41:43;7.78;;;3.60;;
72517;SDS011;60540;51.178;6.738;2024-01-10T07:44:27;8.68;;;4.13;;
72517;SDS011;60540;51.178;6.738;2024-01-10T07:47:12;8.05;;;5.15;;
72517;SDS011;60540;51.178;6.738;2024-01-10T07:49:56;7.45;;;4.30;;
72517;SDS011;60540;51.178;6.738;2024-01-10T07:52:44;9.18;;;4.32;;
72517;SDS011;60540;51.178;6.738;2024-01-10T07:55:28;6.38;;;3.85;;
72517;SDS011;60540;51.178;6.738;2024-01-10T07:58:13;7.88;;;4.32;;
72517;SDS011;60540;51.178;6.738;2024-01-10T08:00:58;9.23;;;4.53;;
72517;SDS011;60540;51.178;6.738;2024-01-10T08:03:42;6.68;;;4.32;;
72517;SDS011;60540;51.178;6.738;2024-01-10T08:06:26;8.10;;;3.75;;
72517;SDS011;60540;51.178;6.738;2024-01-10T08:09:10;9.35;;;4.30;;
72517;SDS011;60540;51.178;6.738;2024-01-10T08:11:55;6.07;;;3.53;;
72517;SDS011;60540;51.178;6.738;2024-01-10T08:14:39;9.05;;;4.05;;
72517;SDS011;60540;51.178;6.738;2024-01-10T08:17:24;6.93;;;3.78;;
72517;SDS011;60540;51.178;6.738;2024-01-10T08:20:08;9.10;;;4.20;;
72517;SDS011;60540;51.178;6.738;2024-01-10T08:22:54;8.63;;;4.13;;
72517;SDS011;60540;51.178;6.738;2024-01-10T08:25:39;7.13;;;3.72;;
72517;SDS011;60540;51.178;6.738;2024-01-10T08:28:25;7.63;;;3.15;;
72517;SDS011;60540;51.178;6.738;2024-01-10T08:31:10;10.85;;;4.97;;
72517;SDS011;60540;51.178;6.738;2024-01-10T08:33:56;9.65;;;4.80;;
72517;SDS011;60540;51.178;6.738;2024-01-10T08:36:41;11.05;;;3.47;;
72517;SDS011;60540;51.178;6.738;2024-01-10T08:39:25;6.95;;;4.18;;
72517;SDS011;60540;51.178;6.738;2024-01-10T08:42:12;10.25;;;4.43;;
72517;SDS011;60540;51.178;6.738;2024-01-10T08:44:56;7.50;;;4.13;;
72517;SDS011;60540;51.178;6.738;2024-01-10T08:47:40;7.75;;;3.35;;
72517;SDS011;60540;51.178;6.738;2024-01-10T08:50:25;7.43;;;3.92;;
72517;SDS011;60540;51.178;6.738;2024-01-10T08:53:10;11.40;;;4.22;;
72517;SDS011;60540;51.178;6.738;2024-01-10T08:55:54;11.85;;;6.10;;
72517;SDS011;60540;51.178;6.738;2024-01-10T08:58:39;6.80;;;3.80;;
72517;SDS011;60540;51.178;6.738;2024-01-10T09:01:23;8.73;;;4.53;;
72517;SDS011;60540;51.178;6.738;2024-01-10T09:04:07;8.50;;;4.20;;
72517;SDS011;60540;51.178;6.738;2024-01-10T09:06:51;6.47;;;4.00;;
72517;SDS011;60540;51.178;6.738;2024-01-10T09:09:35;9.38;;;4.53;;
72517;SDS011;60540;51.178;6.738;2024-01-10T09:12:20;13.35;;;5.40;;
72517;SDS011;60540;51.178;6.738;2024-01-10T09:15:04;10.80;;;4.95;;
72517;SDS011;60540;51.178;6.738;2024-01-10T09:17:48;7.72;;;4.47;;
72517;SDS011;60540;51.178;6.738;2024-01-10T09:20:33;9.85;;;5.00;;
72517;SDS011;60540;51.178;6.738;2024-01-10T09:23:17;9.13;;;4.43;;
72517;SDS011;60540;51.178;6.738;2024-01-10T09:28:47;14.75;;;4.43;;
72517;SDS011;60540;51.178;6.738;2024-01-10T09:31:31;10.00;;;4.13;;
72517;SDS011;60540;51.178;6.738;2024-01-10T09:34:15;8.98;;;4.68;;
72517;SDS011;60540;51.178;6.738;2024-01-10T09:37:00;11.52;;;5.35;;
72517;SDS011;60540;51.178;6.738;2024-01-10T09:39:45;9.90;;;4.75;;
72517;SDS011;60540;51.178;6.738;2024-01-10T09:42:30;8.95;;;5.22;;
72517;SDS011;60540;51.178;6.738;2024-01-10T09:45:15;7.80;;;4.97;;
72517;SDS011;60540;51.178;6.738;2024-01-10T09:48:00;10.85;;;4.65;;
72517;SDS011;60540;51.178;6.738;2024-01-10T09:50:45;7.65;;;4.25;;
72517;SDS011;60540;51.178;6.738;2024-01-10T09:53:31;8.52;;;4.43;;
72517;SDS011;60540;51.178;6.738;2024-01-10T09:56:15;11.73;;;4.72;;
72517;SDS011;60540;51.178;6.738;2024-01-10T09:59:01;8.38;;;4.15;;
72517;SDS011;60540;51.178;6.738;2024-01-10T10:01:45;8.00;;;4.18;;
72517;SDS011;60540;51.178;6.738;2024-01-10T10:04:29;9.88;;;5.18;;
72517;SDS011;60540;51.178;6.738;2024-01-10T10:07:14;9.43;;;4.10;;
72517;SDS011;60540;51.178;6.738;2024-01-10T10:09:59;10.13;;;4.90;;
72517;SDS011;60540;51.178;6.738;2024-01-10T10:12:50;8.68;;;4.13;;
72517;SDS011;60540;51.178;6.738;2024-01-10T10:15:36;9.27;;;4.82;;
72517;SDS011;60540;51.178;6.738;2024-01-10T10:18:21;9.43;;;4.57;;
72517;SDS011;60540;51.178;6.738;2024-01-10T10:21:07;7.93;;;4.63;;
72517;SDS011;60540;51.178;6.738;2024-01-10T10:23:59;11.93;;;4.18;;
72517;SDS011;60540;51.178;6.738;2024-01-10T10:26:45;7.53;;;4.80;;
72517;SDS011;60540;51.178;6.738;2024-01-10T10:29:29;12.85;;;5.28;;
72517;SDS011;60540;51.178;6.738;2024-01-10T10:32:14;17.40;;;4.50;;
72517;SDS011;60540;51.178;6.738;2024-01-10T10:34:59;10.68;;;5.30;;
72517;SDS011;60540;51.178;6.738;2024-01-10T10:37:44;11.50;;;4.95;;
72517;SDS011;60540;51.178;6.738;2024-01-10T10:40:28;13.75;;;5.55;;
72517;SDS011;60540;51.178;6.738;2024-01-10T10:43:13;10.68;;;4.68;;
72517;SDS011;60540;51.178;6.738;2024-01-10T10:45:58;12.13;;;4.90;;
72517;SDS011;60540;51.178;6.738;2024-01-10T10:48:43;10.95;;;5.10;;
72517;SDS011;60540;51.178;6.738;2024-01-10T10:51:31;11.20;;;5.30;;
72517;SDS011;60540;51.178;6.738;2024-01-10T10:54:18;12.40;;;6.18;;
72517;SDS011;60540;51.178;6.738;2024-01-10T10:57:03;14.95;;;6.07;;
72517;SDS011;60540;51.178;6.738;2024-01-10T10:59:48;12.45;;;5.93;;
72517;SDS011;60540;51.178;6.738;2024-01-10T11:02:33;19.75;;;6.05;;
72517;SDS011;60540;51.178;6.738;2024-01-10T11:05:19;16.23;;;6.05;;
72517;SDS011;60540;51.178;6.738;2024-01-10T11:08:04;10.60;;;5.03;;
72517;SDS011;60540;51.178;6.738;2024-01-10T11:10:49;15.73;;;6.00;;
72517;SDS011;60540;51.178;6.738;2024-01-10T11:16:55;12.25;;;5.28;;
72517;SDS011;60540;51.178;6.738;2024-01-10T11:25:48;10.23;;;5.03;;
72517;SDS011;60540;51.178;6.738;2024-01-10T11:28:33;10.30;;;5.88;;
72517;SDS011;60540;51.178;6.738;2024-01-10T11:31:26;9.23;;;4.72;;
72517;SDS011;60540;51.178;6.738;2024-01-10T11:34:13;9.73;;;4.97;;
72517;SDS011;60540;51.178;6.738;2024-01-10T11:37:09;11.48;;;4.70;;
72517;SDS011;60540;51.178;6.738;2024-01-10T11:39:55;10.07;;;4.82;;
72517;SDS011;60540;51.178;6.738;2024-01-10T11:42:42;10.13;;;5.80;;
72517;SDS011;60540;51.178;6.738;2024-01-10T11:48:15;9.98;;;4.85;;
72517;SDS011;60540;51.178;6.738;2024-01-10T11:50:59;11.15;;;5.25;;
72517;SDS011;60540;51.178;6.738;2024-01-10T11:53:47;11.10;;;6.03;;
72517;SDS011;60540;51.178;6.738;2024-01-10T11:56:37;11.80;;;6.70;;
72517;SDS011;60540;51.178;6.738;2024-01-10T11:59:22;9.48;;;5.60;;
72517;SDS011;60540;51.178;6.738;2024-01-10T12:02:07;11.38;;;5.60;;
72517;SDS011;60540;51.178;6.738;2024-01-10T12:04:52;8.90;;;5.35;;
72517;SDS011;60540;51.178;6.738;2024-01-10T12:07:37;8.85;;;5.15;;
72517;SDS011;60540;51.178;6.738;2024-01-10T12:10:21;11.63;;;5.43;;
72517;SDS011;60540;51.178;6.738;2024-01-10T12:13:05;14.30;;;5.85;;
72517;SDS011;60540;51.178;6.738;2024-01-10T12:15:50;9.25;;;4.68;;
72517;SDS011;60540;51.178;6.738;2024-01-10T12:18:34;10.32;;;5.20;;
72517;SDS011;60540;51.178;6.738;2024-01-10T12:21:18;11.52;;;5.65;;
72517;SDS011;60540;51.178;6.738;2024-01-10T12:24:03;10.48;;;5.13;;
72517;SDS011;60540;51.178;6.738;2024-01-10T12:26:49;11.60;;;5.63;;
72517;SDS011;60540;51.178;6.738;2024-01-10T12:29:34;11.57;;;5.32;;
72517;SDS011;60540;51.178;6.738;2024-01-10T12:32:19;9.93;;;5.15;;
72517;SDS011;60540;51.178;6.738;2024-01-10T12:35:06;9.13;;;5.05;;
72517;SDS011;60540;51.178;6.738;2024-01-10T12:37:54;8.45;;;5.00;;
72517;SDS011;60540;51.178;6.738;2024-01-10T12:40:43;10.25;;;5.70;;
72517;SDS011;60540;51.178;6.738;2024-01-10T12:43:27;10.15;;;5.78;;
72517;SDS011;60540;51.178;6.738;2024-01-10T12:46:11;8.70;;;5.15;;
72517;SDS011;60540;51.178;6.738;2024-01-10T12:49:02;10.60;;;5.07;;
72517;SDS011;60540;51.178;6.738;2024-01-10T12:51:48;10.60;;;5.13;;
72517;SDS011;60540;51.178;6.738;2024-01-10T12:54:33;8.95;;;4.70;;
72517;SDS011;60540;51.178;6.738;2024-01-10T12:57:18;9.30;;;5.15;;
72517;SDS011;60540;51.178;6.738;2024-01-10T13:00:02;9.77;;;5.30;;
72517;SDS011;60540;51.178;6.738;2024-01-10T13:02:53;16.55;;;5.15;;
72517;SDS011;60540;51.178;6.738;2024-01-10T13:05:37;10.32;;;4.75;;
72517;SDS011;60540;51.178;6.738;2024-01-10T13:08:22;12.30;;;5.65;;
72517;SDS011;60540;51.178;6.738;2024-01-10T13:11:06;12.10;;;5.38;;
72517;SDS011;60540;51.178;6.738;2024-01-10T13:13:53;12.40;;;5.65;;
72517;SDS011;60540;51.178;6.738;2024-01-10T13:16:37;10.77;;;5.35;;
72517;SDS011;60540;51.178;6.738;2024-01-10T13:19:21;10.93;;;4.78;;
72517;SDS011;60540;51.178;6.738;2024-01-10T13:22:05;12.60;;;5.95;;
72517;SDS011;60540;51.178;6.738;2024-01-10T13:24:50;10.73;;;5.05;;
72517;SDS011;60540;51.178;6.738;2024-01-10T13:27:34;14.25;;;5.40;;
72517;SDS011;60540;51.178;6.738;2024-01-10T13:30:19;9.98;;;4.30;;
72517;SDS011;60540;51.178;6.738;2024-01-10T13:33:03;11.73;;;5.82;;
72517;SDS011;60540;51.178;6.738;2024-01-10T13:35:48;16.73;;;5.95;;
72517;SDS011;60540;51.178;6.738;2024-01-10T13:38:33;12.30;;;5.15;;
72517;SDS011;60540;51.178;6.738;2024-01-10T13:41:17;11.38;;;5.35;;
72517;SDS011;60540;51.178;6.738;2024-01-10T13:44:01;11.43;;;6.03;;
72517;SDS011;60540;51.178;6.738;2024-01-10T13:46:46;14.25;;;5.32;;
72517;SDS011;60540;51.178;6.738;2024-01-10T13:49:33;11.43;;;5.60;;
72517;SDS011;60540;51.178;6.738;2024-01-10T13:52:18;8.65;;;4.72;;
72517;SDS011;60540;51.178;6.738;2024-01-10T13:55:02;11.02;;;5.50;;
72517;SDS011;60540;51.178;6.738;2024-01-10T13:57:50;11.40;;;5.30;;
72517;SDS011;60540;51.178;6.738;2024-01-10T14:00:35;9.00;;;5.07;;
72517;SDS011;60540;51.178;6.738;2024-01-10T14:03:19;10.13;;;4.97;;
72517;SDS011;60540;51.178;6.738;2024-01-10T14:06:03;11.45;;;5.75;;
72517;SDS011;60540;51.178;6.738;2024-01-10T14:08:48;12.15;;;5.63;;
72517;SDS011;60540;51.178;6.738;2024-01-10T14:11:32;9.55;;;4.93;;
72517;SDS011;60540;51.178;6.738;2024-01-10T14:14:18;10.07;;;4.88;;
72517;SDS011;60540;51.178;6.738;2024-01-10T14:17:03;13.20;;;5.88;;
72517;SDS011;60540;51.178;6.738;2024-01-10T14:19:48;8.15;;;4.60;;
72517;SDS011;60540;51.178;6.738;2024-01-10T14:22:35;10.38;;;5.50;;
72517;SDS011;60540;51.178;6.738;2024-01-10T14:30:49;11.15;;;4.90;;
72517;SDS011;60540;51.178;6.738;2024-01-10T14:33:33;13.07;;;5.63;;
72517;SDS011;60540;51.178;6.738;2024-01-10T14:36:18;13.23;;;7.35;;
72517;SDS011;60540;51.178;6.738;2024-01-10T14:39:02;16.00;;;6.18;;
72517;SDS011;60540;51.178;6.738;2024-01-10T14:41:49;14.63;;;6.10;;
72517;SDS011;60540;51.178;6.738;2024-01-10T14:44:33;13.60;;;6.22;;
72517;SDS011;60540;51.178;6.738;2024-01-10T14:47:18;12.02;;;6.63;;
72517;SDS011;60540;51.178;6.738;2024-01-10T14:50:03;13.18;;;6.60;;
72517;SDS011;60540;51.178;6.738;2024-01-10T14:52:49;14.00;;;6.50;;
72517;SDS011;60540;51.178;6.738;2024-01-10T14:55:34;11.25;;;5.82;;
72517;SDS011;60540;51.178;6.738;2024-01-10T14:58:18;13.07;;;6.68;;
72517;SDS011;60540;51.178;6.738;2024-01-10T15:01:02;13.82;;;6.35;;
72517;SDS011;60540;51.178;6.738;2024-01-10T15:03:47;17.95;;;7.90;;
72517;SDS011;60540;51.178;6.738;2024-01-10T15:06:31;16.40;;;6.82;;
72517;SDS011;60540;51.178;6.738;2024-01-10T15:09:16;14.30;;;6.40;;
72517;SDS011;60540;51.178;6.738;2024-01-10T15:12:00;11.70;;;6.10;;
72517;SDS011;60540;51.178;6.738;2024-01-10T15:14:46;14.65;;;6.35;;
72517;SDS011;60540;51.178;6.738;2024-01-10T15:17:30;17.00;;;7.85;;
72517;SDS011;60540;51.178;6.738;2024-01-10T15:20:14;12.35;;;5.93;;
72517;SDS011;60540;51.178;6.738;2024-01-10T15:22:58;14.48;;;6.00;;
72517;SDS011;60540;51.178;6.738;2024-01-10T15:25:43;11.85;;;5.95;;
72517;SDS011;60540;51.178;6.738;2024-01-10T15:28:27;13.98;;;7.03;;
72517;SDS011;60540;51.178;6.738;2024-01-10T15:31:16;12.23;;;6.25;;
72517;SDS011;60540;51.178;6.738;2024-01-10T15:34:03;12.02;;;6.35;;
72517;SDS011;60540;51.178;6.738;2024-01-10T15:36:48;16.30;;;7.45;;
72517;SDS011;60540;51.178;6.738;2024-01-10T15:39:32;15.00;;;6.78;;
72517;SDS011;60540;51.178;6.738;2024-01-10T15:42:16;13.82;;;7.18;;
72517;SDS011;60540;51.178;6.738;2024-01-10T15:45:00;12.90;;;6.07;;
72517;SDS011;60540;51.178;6.738;2024-01-10T15:47:44;16.23;;;6.97;;
72517;SDS011;60540;51.178;6.738;2024-01-10T15:50:28;13.35;;;7.10;;
72517;SDS011;60540;51.178;6.738;2024-01-10T15:53:13;18.08;;;7.40;;
72517;SDS011;60540;51.178;6.738;2024-01-10T15:55:57;17.70;;;7.55;;
72517;SDS011;60540;51.178;6.738;2024-01-10T15:58:42;16.60;;;7.85;;
72517;SDS011;60540;51.178;6.738;2024-01-10T16:01:26;17.33;;;7.53;;
72517;SDS011;60540;51.178;6.738;2024-01-10T16:04:10;17.95;;;8.85;;
72517;SDS011;60540;51.178;6.738;2024-01-10T16:06:54;16.13;;;8.10;;
72517;SDS011;60540;51.178;6.738;2024-01-10T16:09:39;16.85;;;7.47;;
72517;SDS011;60540;51.178;6.738;2024-01-10T16:12:23;17.90;;;7.85;;
72517;SDS011;60540;51.178;6.738;2024-01-10T16:15:07;14.30;;;7.90;;
72517;SDS011;60540;51.178;6.738;2024-01-10T16:17:52;16.55;;;8.35;;
72517;SDS011;60540;51.178;6.738;2024-01-10T16:20:36;17.30;;;7.97;;
72517;SDS011;60540;51.178;6.738;2024-01-10T16:23:22;16.80;;;8.00;;
72517;SDS011;60540;51.178;6.738;2024-01-10T16:26:06;15.98;;;8.23;;
72517;SDS011;60540;51.178;6.738;2024-01-10T16:28:50;16.75;;;8.18;;
72517;SDS011;60540;51.178;6.738;2024-01-10T16:31:35;24.92;;;7.05;;
72517;SDS011;60540;51.178;6.738;2024-01-10T16:37:05;13.57;;;6.60;;
72517;SDS011;60540;51.178;6.738;2024-01-10T16:39:50;16.15;;;8.50;;
72517;SDS011;60540;51.178;6.738;2024-01-10T16:42:34;16.55;;;8.55;;
72517;SDS011;60540;51.178;6.738;2024-01-10T16:45:19;17.55;;;9.38;;
72517;SDS011;60540;51.178;6.738;2024-01-10T16:48:04;14.30;;;7.68;;
72517;SDS011;60540;51.178;6.738;2024-01-10T16:50:48;16.63;;;8.00;;
72517;SDS011;60540;51.178;6.738;2024-01-10T16:53:32;20.80;;;8.70;;